sensor_id;sensor_type;location;lat;lon;timestamp;P1;durP1;ratioP1;P2;durP2;ratioP2
35243;SDS011;37916;52.160;21.066;2022-07-17T00:03:25;4.77;;;2.47;;
35243;SDS011;37916;52.160;21.066;2022-07-17T00:13:26;3.53;;;1.20;;
35243;SDS011;37916;52.160;21.066;2022-07-17T00:23:27;3.13;;;1.05;;
35243;SDS011;37916;52.160;21.066;2022-07-17T00:33:27;5.17;;;1.33;;
35243;SDS011;37916;52.160;21.066;2022-07-17T00:43:28;5.50;;;1.60;;
35243;SDS011;37916;52.160;21.066;2022-07-17T00:53:31;4.47;;;1.50;;
35243;SDS011;37916;52.160;21.066;2022-07-17T01:13:34;4.13;;;1.55;;
35243;SDS011;37916;52.160;21.066;2022-07-17T01:23:35;3.53;;;2.08;;
35243;SDS011;37916;52.160;21.066;2022-07-17T01:33:36;3.55;;;1.60;;
35243;SDS011;37916;52.160;21.066;2022-07-17T01:43:37;4.85;;;1.60;;
35243;SDS011;37916;52.160;21.066;2022-07-17T01:53:40;3.67;;;2.15;;
35243;SDS011;37916;52.160;21.066;2022-07-17T02:03:41;8.00;;;2.67;;
35243;SDS011;37916;52.160;21.066;2022-07-17T02:13:42;7.43;;;2.20;;
35243;SDS011;37916;52.160;21.066;2022-07-17T02:23:42;4.43;;;2.40;;
35243;SDS011;37916;52.160;21.066;2022-07-17T02:33:43;3.65;;;2.45;;
35243;SDS011;37916;52.160;21.066;2022-07-17T02:43:44;7.07;;;2.63;;
35243;SDS011;37916;52.160;21.066;2022-07-17T02:53:44;6.97;;;2.80;;
35243;SDS011;37916;52.160;21.066;2022-07-17T03:03:45;6.45;;;3.00;;
35243;SDS011;37916;52.160;21.066;2022-07-17T03:13:46;5.78;;;2.60;;
35243;SDS011;37916;52.160;21.066;2022-07-17T03:23:46;3.47;;;2.40;;
35243;SDS011;37916;52.160;21.066;2022-07-17T03:33:47;12.95;;;3.55;;
35243;SDS011;37916;52.160;21.066;2022-07-17T03:43:47;5.95;;;2.10;;
35243;SDS011;37916;52.160;21.066;2022-07-17T03:53:48;4.10;;;2.20;;
35243;SDS011;37916;52.160;21.066;2022-07-17T04:03:51;6.35;;;1.90;;
35243;SDS011;37916;52.160;21.066;2022-07-17T04:13:51;5.43;;;2.00;;
35243;SDS011;37916;52.160;21.066;2022-07-17T04:23:52;4.80;;;2.00;;
35243;SDS011;37916;52.160;21.066;2022-07-17T04:33:53;5.78;;;1.90;;
35243;SDS011;37916;52.160;21.066;2022-07-17T04:43:54;5.97;;;1.67;;
35243;SDS011;37916;52.160;21.066;2022-07-17T04:53:54;5.70;;;1.90;;
35243;SDS011;37916;52.160;21.066;2022-07-17T05:03:56;6.75;;;2.00;;
35243;SDS011;37916;52.160;21.066;2022-07-17T05:13:57;5.03;;;1.60;;
35243;SDS011;37916;52.160;21.066;2022-07-17T05:23:57;4.00;;;1.77;;
35243;SDS011;37916;52.160;21.066;2022-07-17T05:33:58;6.18;;;1.40;;
35243;SDS011;37916;52.160;21.066;2022-07-17T05:43:59;7.60;;;1.75;;
35243;SDS011;37916;52.160;21.066;2022-07-17T05:54:02;6.28;;;2.20;;
35243;SDS011;37916;52.160;21.066;2022-07-17T06:04:03;3.87;;;1.40;;
35243;SDS011;37916;52.160;21.066;2022-07-17T06:14:04;6.97;;;2.37;;
35243;SDS011;37916;52.160;21.066;2022-07-17T06:24:04;5.30;;;1.70;;
35243;SDS011;37916;52.160;21.066;2022-07-17T06:34:08;6.05;;;1.40;;
35243;SDS011;37916;52.160;21.066;2022-07-17T06:44:08;4.23;;;1.80;;
35243;SDS011;37916;52.160;21.066;2022-07-17T06:54:09;4.97;;;2.08;;
35243;SDS011;37916;52.160;21.066;2022-07-17T07:04:10;4.10;;;2.50;;
35243;SDS011;37916;52.160;21.066;2022-07-17T07:14:11;3.97;;;1.83;;
35243;SDS011;37916;52.160;21.066;2022-07-17T07:24:12;6.40;;;2.00;;
35243;SDS011;37916;52.160;21.066;2022-07-17T07:34:12;4.45;;;2.15;;
35243;SDS011;37916;52.160;21.066;2022-07-17T07:44:17;3.40;;;1.77;;
35243;SDS011;37916;52.160;21.066;2022-07-17T07:54:18;5.85;;;2.10;;
35243;SDS011;37916;52.160;21.066;2022-07-17T08:04:18;5.25;;;2.10;;
35243;SDS011;37916;52.160;21.066;2022-07-17T08:14:19;4.10;;;1.80;;
35243;SDS011;37916;52.160;21.066;2022-07-17T08:24:22;5.73;;;2.00;;
35243;SDS011;37916;52.160;21.066;2022-07-17T08:34:22;1.83;;;1.20;;
35243;SDS011;37916;52.160;21.066;2022-07-17T08:44:23;8.10;;;1.95;;
35243;SDS011;37916;52.160;21.066;2022-07-17T08:54:27;4.28;;;1.42;;
35243;SDS011;37916;52.160;21.066;2022-07-17T09:04:30;1.83;;;0.88;;
35243;SDS011;37916;52.160;21.066;2022-07-17T09:14:37;2.58;;;0.98;;
35243;SDS011;37916;52.160;21.066;2022-07-17T09:24:43;4.75;;;1.08;;
35243;SDS011;37916;52.160;21.066;2022-07-17T09:34:50;1.90;;;0.70;;
35243;SDS011;37916;52.160;21.066;2022-07-17T09:44:56;5.03;;;1.10;;
35243;SDS011;37916;52.160;21.066;2022-07-17T09:55:04;6.97;;;1.58;;
35243;SDS011;37916;52.160;21.066;2022-07-17T10:05:05;5.35;;;1.30;;
35243;SDS011;37916;52.160;21.066;2022-07-17T10:15:10;2.78;;;1.23;;
35243;SDS011;37916;52.160;21.066;2022-07-17T10:25:13;2.65;;;0.98;;
35243;SDS011;37916;52.160;21.066;2022-07-17T10:35:15;6.00;;;1.10;;
35243;SDS011;37916;52.160;21.066;2022-07-17T10:45:19;3.08;;;1.00;;
35243;SDS011;37916;52.160;21.066;2022-07-17T10:55:28;3.78;;;0.93;;
35243;SDS011;37916;52.160;21.066;2022-07-17T11:05:29;2.42;;;0.93;;
35243;SDS011;37916;52.160;21.066;2022-07-17T11:15:30;1.58;;;0.98;;
35243;SDS011;37916;52.160;21.066;2022-07-17T11:25:39;2.75;;;1.10;;
35243;SDS011;37916;52.160;21.066;2022-07-17T11:35:50;3.00;;;1.00;;
35243;SDS011;37916;52.160;21.066;2022-07-17T11:45:51;3.83;;;0.90;;
35243;SDS011;37916;52.160;21.066;2022-07-17T11:55:52;1.38;;;0.88;;
35243;SDS011;37916;52.160;21.066;2022-07-17T12:05:55;2.67;;;0.70;;
35243;SDS011;37916;52.160;21.066;2022-07-17T12:15:56;2.10;;;0.98;;
35243;SDS011;37916;52.160;21.066;2022-07-17T12:26:05;3.17;;;0.90;;
35243;SDS011;37916;52.160;21.066;2022-07-17T12:36:17;1.38;;;0.63;;
35243;SDS011;37916;52.160;21.066;2022-07-17T12:46:18;2.72;;;0.88;;
35243;SDS011;37916;52.160;21.066;2022-07-17T12:56:18;2.40;;;0.60;;
35243;SDS011;37916;52.160;21.066;2022-07-17T13:06:22;2.25;;;0.60;;
35243;SDS011;37916;52.160;21.066;2022-07-17T13:16:23;1.23;;;0.57;;
35243;SDS011;37916;52.160;21.066;2022-07-17T13:26:23;4.22;;;2.15;;
35243;SDS011;37916;52.160;21.066;2022-07-17T13:36:24;1.67;;;0.60;;
35243;SDS011;37916;52.160;21.066;2022-07-17T13:46:25;1.97;;;0.40;;
35243;SDS011;37916;52.160;21.066;2022-07-17T13:56:25;4.10;;;0.80;;
35243;SDS011;37916;52.160;21.066;2022-07-17T14:06:26;1.63;;;0.50;;
35243;SDS011;37916;52.160;21.066;2022-07-17T14:16:27;2.33;;;0.63;;
35243;SDS011;37916;52.160;21.066;2022-07-17T14:26:28;2.20;;;0.70;;
35243;SDS011;37916;52.160;21.066;2022-07-17T14:36:29;1.88;;;0.60;;
35243;SDS011;37916;52.160;21.066;2022-07-17T14:46:30;1.80;;;0.60;;
35243;SDS011;37916;52.160;21.066;2022-07-17T14:56:31;2.75;;;0.60;;
35243;SDS011;37916;52.160;21.066;2022-07-17T15:06:31;1.33;;;0.40;;
35243;SDS011;37916;52.160;21.066;2022-07-17T15:16:32;1.55;;;0.60;;
35243;SDS011;37916;52.160;21.066;2022-07-17T15:26:33;0.93;;;0.50;;
35243;SDS011;37916;52.160;21.066;2022-07-17T15:36:46;1.17;;;0.30;;
35243;SDS011;37916;52.160;21.066;2022-07-17T15:46:46;1.02;;;0.43;;
35243;SDS011;37916;52.160;21.066;2022-07-17T15:56:50;2.95;;;0.70;;
35243;SDS011;37916;52.160;21.066;2022-07-17T16:06:50;2.42;;;0.85;;
35243;SDS011;37916;52.160;21.066;2022-07-17T16:16:51;2.65;;;0.73;;
35243;SDS011;37916;52.160;21.066;2022-07-17T16:26:52;2.37;;;0.50;;
35243;SDS011;37916;52.160;21.066;2022-07-17T16:36:52;3.28;;;0.70;;
35243;SDS011;37916;52.160;21.066;2022-07-17T16:46:54;2.42;;;0.73;;
35243;SDS011;37916;52.160;21.066;2022-07-17T16:56:55;3.17;;;1.00;;
35243;SDS011;37916;52.160;21.066;2022-07-17T17:07:04;3.67;;;1.02;;
35243;SDS011;37916;52.160;21.066;2022-07-17T17:17:05;1.30;;;0.60;;
35243;SDS011;37916;52.160;21.066;2022-07-17T17:27:05;3.88;;;1.15;;
35243;SDS011;37916;52.160;21.066;2022-07-17T17:47:16;2.83;;;1.17;;
35243;SDS011;37916;52.160;21.066;2022-07-17T17:57:20;3.08;;;0.80;;
35243;SDS011;37916;52.160;21.066;2022-07-17T18:07:20;2.57;;;0.60;;
35243;SDS011;37916;52.160;21.066;2022-07-17T18:17:21;3.95;;;1.02;;
35243;SDS011;37916;52.160;21.066;2022-07-17T18:27:22;2.10;;;0.77;;
35243;SDS011;37916;52.160;21.066;2022-07-17T18:37:23;3.95;;;0.73;;
35243;SDS011;37916;52.160;21.066;2022-07-17T18:58:40;4.90;;;1.15;;
35243;SDS011;37916;52.160;21.066;2022-07-17T19:08:41;6.50;;;0.77;;
35243;SDS011;37916;52.160;21.066;2022-07-17T19:18:41;4.50;;;0.97;;
35243;SDS011;37916;52.160;21.066;2022-07-17T19:28:42;5.53;;;1.70;;
35243;SDS011;37916;52.160;21.066;2022-07-17T19:38:43;4.80;;;1.00;;
35243;SDS011;37916;52.160;21.066;2022-07-17T19:48:44;2.42;;;1.40;;
35243;SDS011;37916;52.160;21.066;2022-07-17T19:58:46;5.00;;;1.30;;
35243;SDS011;37916;52.160;21.066;2022-07-17T20:08:48;4.00;;;1.00;;
35243;SDS011;37916;52.160;21.066;2022-07-17T20:18:50;3.03;;;1.17;;
35243;SDS011;37916;52.160;21.066;2022-07-17T20:28:54;6.75;;;1.15;;
35243;SDS011;37916;52.160;21.066;2022-07-17T20:38:54;7.63;;;1.60;;
35243;SDS011;37916;52.160;21.066;2022-07-17T20:48:55;4.70;;;1.23;;
35243;SDS011;37916;52.160;21.066;2022-07-17T20:58:56;5.40;;;1.25;;
35243;SDS011;37916;52.160;21.066;2022-07-17T21:08:57;4.85;;;1.30;;
35243;SDS011;37916;52.160;21.066;2022-07-17T21:18:58;5.45;;;1.33;;
35243;SDS011;37916;52.160;21.066;2022-07-17T21:28:59;5.22;;;1.45;;
35243;SDS011;37916;52.160;21.066;2022-07-17T21:39:00;3.25;;;1.00;;
35243;SDS011;37916;52.160;21.066;2022-07-17T21:49:00;3.83;;;1.53;;
35243;SDS011;37916;52.160;21.066;2022-07-17T21:59:01;3.55;;;1.67;;
35243;SDS011;37916;52.160;21.066;2022-07-17T22:09:02;4.45;;;1.75;;
35243;SDS011;37916;52.160;21.066;2022-07-17T22:19:08;4.32;;;1.67;;
35243;SDS011;37916;52.160;21.066;2022-07-17T22:29:09;4.88;;;2.10;;
35243;SDS011;37916;52.160;21.066;2022-07-17T22:39:10;6.80;;;1.88;;
35243;SDS011;37916;52.160;21.066;2022-07-17T22:49:11;5.13;;;1.77;;
35243;SDS011;37916;52.160;21.066;2022-07-17T22:59:13;4.63;;;1.40;;
35243;SDS011;37916;52.160;21.066;2022-07-17T23:09:14;3.42;;;1.45;;
35243;SDS011;37916;52.160;21.066;2022-07-17T23:19:14;5.53;;;1.73;;
35243;SDS011;37916;52.160;21.066;2022-07-17T23:29:15;5.30;;;1.60;;
35243;SDS011;37916;52.160;21.066;2022-07-17T23:39:16;4.95;;;2.00;;
35243;SDS011;37916;52.160;21.066;2022-07-17T23:49:16;5.35;;;1.80;;
35243;SDS011;37916;52.160;21.066;2022-07-17T23:59:17;3.58;;;1.73;;
